This is the latest recevied weather packets stored in our database for station/object KJ6BBX. If no packets are shown the sender has not sent any weather packets the latest 10 day(s).
| Time | Temp. | Humidity | Pressure | Rain* | Wind** | Luminosity | Snow |
|---|---|---|---|---|---|---|---|
| 1778281514 | 26.11° C | 58% | 1005.1 hPa | 0 mm | - | 360 W/m² | - |
| 1778280614 | 26.67° C | 57% | 1005.7 hPa | 0 mm | - | 403 W/m² | - |
| 1778279714 | 26.67° C | 57% | 1005.5 hPa | 0 mm | - | 300 W/m² | - |
| 1778278814 | 26.67° C | 59% | 1005.9 hPa | 0 mm | - | 420 W/m² | - |
| 1778277913 | 26.11° C | 58% | 1006.3 hPa | 0 mm | - | 502 W/m² | - |
| 1778277014 | 26.67° C | 57% | 1006.2 hPa | 0 mm | - | 484 W/m² | - |
| 1778276114 | 27.22° C | 55% | 1006.3 hPa | 0 mm | - | 569 W/m² | - |
| 1778275215 | 26.67° C | 57% | 1006 hPa | 0 mm | - | 527 W/m² | - |
| 1778274315 | 27.22° C | 56% | 1006.3 hPa | 0 mm | - | 587 W/m² | - |
| 1778273414 | 27.78° C | 55% | 1006.6 hPa | 0 mm | - | 607 W/m² | - |
| 1778272514 | 27.22° C | 55% | 1006.7 hPa | 0 mm | - | 592 W/m² | - |
| 1778271614 | 26.67° C | 56% | 1006.9 hPa | 0 mm | - | 587 W/m² | - |
| 1778270714 | 26.11° C | 58% | 1006.8 hPa | 0 mm | - | 542 W/m² | - |
| 1778269814 | 25.56° C | 58% | 1007.1 hPa | 0 mm | - | 519 W/m² | - |
| 1778268914 | 25.56° C | 58% | 1007.3 hPa | 0 mm | - | 595 W/m² | - |
| 1778268014 | 24.44° C | 64% | 1007.5 hPa | 0 mm | - | 614 W/m² | - |
| 1778267114 | 23.89° C | 62% | 1007.4 hPa | 0 mm | - | 612 W/m² | - |
| 1778266214 | 23.89° C | 64% | 1007.9 hPa | 0 mm | - | 576 W/m² | - |
| 1778265314 | 23.33° C | 65% | 1008 hPa | 0 mm | - | 531 W/m² | - |
| 1778264414 | 22.22° C | 68% | 1008.1 hPa | 0 mm | - | 553 W/m² | - |
| 1778263514 | 21.11° C | 70% | 1007.9 hPa | 0 mm | - | 543 W/m² | - |
| 1778262614 | 22.22° C | 67% | 1008.3 hPa | 0 mm | - | 541 W/m² | - |
| 1778261714 | 21.11° C | 71% | 1008.4 hPa | 0 mm | - | 477 W/m² | - |
| 1778260814 | 21.11° C | 73% | 1008.4 hPa | 0 mm | - | 359 W/m² | - |
| 1778259914 | 20° C | 75% | 1008.6 hPa | 0 mm | - | 534 W/m² | - |
* Rain since midnight (hover to see other rain measurements)
** Current wind speed in m/s (hover to see current wind gust speed)